createdAt,value
2023-02-06T00:02:36.680Z,-3.28
2023-02-06T00:05:39.703Z,-3.68
2023-02-06T00:08:42.727Z,-3.50
2023-02-06T00:11:45.746Z,-3.77
2023-02-06T00:14:48.363Z,-3.48
2023-02-06T00:17:51.316Z,-3.19
2023-02-06T00:20:54.011Z,-3.65
2023-02-06T00:23:59.540Z,-3.73
2023-02-06T00:27:02.562Z,-3.67
2023-02-06T00:30:06.557Z,-3.30
2023-02-06T00:33:09.245Z,-3.45
2023-02-06T00:36:12.225Z,-3.87
2023-02-06T00:39:14.931Z,-3.69
2023-02-06T00:42:17.854Z,-3.97
2023-02-06T00:45:21.001Z,-3.95
2023-02-06T00:48:24.947Z,-3.87
2023-02-06T00:51:27.585Z,-3.90
2023-02-06T00:54:30.578Z,-3.55
2023-02-06T00:57:33.226Z,-3.73
2023-02-06T01:00:36.471Z,-3.72
2023-02-06T01:03:39.314Z,-3.79
2023-02-06T01:06:44.500Z,-3.55
2023-02-06T01:09:48.334Z,-3.58
2023-02-06T01:12:51.414Z,-3.93
2023-02-06T01:15:54.088Z,-4.27
2023-02-06T01:18:57.687Z,-3.74
2023-02-06T01:22:00.348Z,-3.70
2023-02-06T01:25:04.635Z,-4.19
2023-02-06T01:28:07.571Z,-3.92
2023-02-06T01:31:19.286Z,-4.03
2023-02-06T01:34:21.934Z,-4.31
2023-02-06T01:37:24.874Z,-3.73
2023-02-06T01:40:27.707Z,-3.36
2023-02-06T01:43:35.661Z,-3.99
2023-02-06T01:46:39.748Z,-3.32
2023-02-06T01:49:49.661Z,-3.72
2023-02-06T01:52:52.548Z,-4.05
2023-02-06T01:55:56.894Z,-4.07
2023-02-06T01:59:02.989Z,-4.03
2023-02-06T02:02:06.482Z,-3.56
2023-02-06T02:05:11.740Z,-3.87
2023-02-06T02:08:30.799Z,-3.90
2023-02-06T02:11:37.390Z,-3.57
2023-02-06T02:14:43.753Z,-3.90
2023-02-06T02:17:51.829Z,-3.89
2023-02-06T02:21:26.065Z,-3.80
2023-02-06T02:24:41.102Z,-3.88
2023-02-06T02:28:21.764Z,-4.27
2023-02-06T02:31:52.279Z,-4.08
2023-02-06T02:35:07.523Z,-3.71
2023-02-06T02:38:46.684Z,-3.52
2023-02-06T02:41:59.006Z,-4.18
2023-02-06T02:45:13.450Z,-4.14
2023-02-06T02:48:23.587Z,-3.57
2023-02-06T02:51:26.976Z,-3.29
2023-02-06T02:54:29.678Z,-3.24
2023-02-06T02:57:32.791Z,-3.22
2023-02-06T03:00:44.859Z,-3.71
2023-02-06T03:03:50.368Z,-3.66
2023-02-06T03:07:20.980Z,-3.28
2023-02-06T03:10:39.859Z,-3.64
2023-02-06T03:13:47.381Z,-4.17
2023-02-06T03:16:59.713Z,-3.72
2023-02-06T03:20:06.295Z,-3.53
2023-02-06T03:23:15.766Z,-3.87
2023-02-06T03:26:22.402Z,-3.85
2023-02-06T03:29:28.182Z,-4.13
2023-02-06T03:32:37.378Z,-4.06
2023-02-06T03:35:40.529Z,-3.39
2023-02-06T03:38:46.022Z,-3.91
2023-02-06T03:41:49.790Z,-3.19
2023-02-06T03:45:01.766Z,-3.98
2023-02-06T03:48:14.920Z,-4.03
2023-02-06T03:51:30.361Z,-3.83
2023-02-06T03:54:37.377Z,-3.63
2023-02-06T03:57:43.205Z,-4.08
2023-02-06T04:00:48.159Z,-3.06
2023-02-06T04:03:51.510Z,-3.31
2023-02-06T04:06:55.058Z,-3.83
2023-02-06T04:09:58.113Z,-3.36
2023-02-06T04:13:01.003Z,-3.29
2023-02-06T04:16:04.133Z,-3.56
2023-02-06T04:19:06.876Z,-3.59
2023-02-06T04:22:12.987Z,-3.81
2023-02-06T04:25:15.943Z,-3.90
2023-02-06T04:28:19.086Z,-3.45
2023-02-06T04:31:22.145Z,-3.37
2023-02-06T04:34:25.050Z,-4.03
2023-02-06T04:37:27.737Z,-3.53
2023-02-06T04:40:31.017Z,-4.12
2023-02-06T04:43:34.339Z,-3.08
2023-02-06T04:46:37.322Z,-3.99
2023-02-06T04:49:39.965Z,-4.40
2023-02-06T04:52:43.122Z,-3.15
2023-02-06T04:55:45.811Z,-4.23
2023-02-06T04:58:48.664Z,-4.04
2023-02-06T05:01:51.324Z,-4.59
2023-02-06T05:04:54.250Z,-3.95
2023-02-06T05:07:56.872Z,-3.28
2023-02-06T05:10:59.791Z,-3.30
2023-02-06T05:14:02.442Z,-3.87
2023-02-06T05:17:05.306Z,-4.31
2023-02-06T05:20:08.781Z,-3.73
2023-02-06T05:23:12.122Z,-3.80
2023-02-06T05:26:14.831Z,-4.42
2023-02-06T05:29:17.673Z,-3.94
2023-02-06T05:32:20.302Z,-4.86
2023-02-06T05:35:23.677Z,-4.73
2023-02-06T05:38:26.277Z,-4.86
2023-02-06T05:41:29.162Z,-4.30
2023-02-06T05:44:32.077Z,-4.43
2023-02-06T05:47:35.098Z,-4.04
2023-02-06T05:50:38.803Z,-3.90
2023-02-06T05:53:50.237Z,-4.46
2023-02-06T05:56:52.951Z,-3.80
2023-02-06T05:59:55.961Z,-3.68
2023-02-06T06:02:58.742Z,-3.67
2023-02-06T06:06:02.089Z,-2.67
2023-02-06T06:09:04.998Z,-3.60
2023-02-06T06:12:08.125Z,-4.37
2023-02-06T06:15:10.829Z,-4.25
2023-02-06T06:18:13.722Z,-3.29
2023-02-06T06:21:16.461Z,-4.21
2023-02-06T06:24:19.314Z,-4.08
2023-02-06T06:27:22.090Z,-3.75
2023-02-06T06:30:25.234Z,-3.69
2023-02-06T06:33:28.012Z,-4.11
2023-02-06T06:36:31.078Z,-4.28
2023-02-06T06:39:33.703Z,-4.11
2023-02-06T06:42:37.468Z,-3.55
2023-02-06T06:45:40.297Z,-2.31
2023-02-06T06:48:43.497Z,-2.83
2023-02-06T06:51:46.154Z,-2.66
2023-02-06T06:54:50.396Z,-3.65
2023-02-06T06:57:54.101Z,-2.51
2023-02-06T07:00:57.560Z,-2.34
2023-02-06T07:04:00.885Z,-3.19
2023-02-06T07:07:03.818Z,-2.71
2023-02-06T07:10:07.658Z,-3.12
2023-02-06T07:13:10.646Z,-2.52
2023-02-06T07:16:13.809Z,-2.70
2023-02-06T07:19:16.802Z,-1.99
2023-02-06T07:22:20.198Z,-3.23
2023-02-06T07:25:23.423Z,-3.17
2023-02-06T07:28:26.122Z,-1.92
2023-02-06T07:31:29.322Z,-2.61
2023-02-06T07:34:31.961Z,-2.89
2023-02-06T07:37:34.906Z,-2.48
2023-02-06T07:40:45.208Z,-1.90
2023-02-06T07:43:49.578Z,-1.23
2023-02-06T07:46:52.951Z,-2.16
2023-02-06T07:49:56.029Z,-1.92
2023-02-06T07:52:59.006Z,-1.11
2023-02-06T07:56:02.313Z,-2.28
2023-02-06T07:59:05.589Z,-1.39
2023-02-06T08:02:11.434Z,-2.10
2023-02-06T08:05:15.558Z,-1.22
2023-02-06T08:08:18.190Z,-2.21
2023-02-06T08:11:25.474Z,-1.90
2023-02-06T08:14:29.057Z,-2.27
2023-02-06T08:17:32.038Z,-1.70
2023-02-06T08:20:35.109Z,-1.31
2023-02-06T08:23:38.731Z,-1.22
2023-02-06T08:26:41.477Z,-1.80
2023-02-06T08:29:44.892Z,-1.10
2023-02-06T08:32:47.525Z,-1.22
2023-02-06T08:35:50.725Z,-1.05
2023-02-06T08:38:53.991Z,-0.89
2023-02-06T08:41:56.990Z,-0.26
2023-02-06T08:44:59.653Z,-1.24
2023-02-06T08:48:02.544Z,-0.61
2023-02-06T08:51:07.539Z,-0.96
2023-02-06T08:54:16.974Z,-0.88
2023-02-06T08:57:20.358Z,-1.36
2023-02-06T09:00:25.525Z,-1.27
2023-02-06T09:03:28.597Z,-0.25
2023-02-06T09:06:33.015Z,-0.31
2023-02-06T09:09:35.687Z,-0.09
2023-02-06T09:12:39.740Z,-0.01
2023-02-06T09:15:43.268Z,-0.23
2023-02-06T09:18:46.988Z,0.17
2023-02-06T09:21:50.020Z,-0.05
2023-02-06T09:24:53.063Z,-0.09
2023-02-06T09:27:57.158Z,-0.29
2023-02-06T09:31:01.630Z,-0.74
2023-02-06T09:34:07.559Z,-0.35
2023-02-06T09:37:10.476Z,-0.24
2023-02-06T09:40:19.185Z,-0.30
2023-02-06T09:43:22.405Z,-0.20
2023-02-06T09:46:31.637Z,0.67
2023-02-06T09:49:47.920Z,0.35
2023-02-06T09:53:21.128Z,0.05
2023-02-06T09:56:46.016Z,0.76
2023-02-06T09:59:56.512Z,-0.52
2023-02-06T10:03:21.542Z,-0.10
2023-02-06T10:06:27.162Z,0.32
2023-02-06T10:09:58.762Z,0.10
2023-02-06T10:13:13.514Z,0.75
2023-02-06T10:16:40.783Z,1.10
2023-02-06T10:20:01.569Z,0.32
2023-02-06T10:23:32.945Z,-0.28
2023-02-06T10:26:39.701Z,0.06
2023-02-06T10:29:45.310Z,0.82
2023-02-06T10:32:56.868Z,0.58
2023-02-06T10:36:12.794Z,0.39
2023-02-06T10:39:37.501Z,0.83
2023-02-06T10:43:02.169Z,0.86
2023-02-06T10:46:38.869Z,0.87
2023-02-06T10:49:50.569Z,2.03
2023-02-06T10:52:56.952Z,1.31
2023-02-06T10:56:10.152Z,1.40
2023-02-06T10:59:38.037Z,1.78
2023-02-06T11:03:06.846Z,1.00
2023-02-06T11:06:15.756Z,1.17
2023-02-06T11:09:18.806Z,1.02
2023-02-06T11:12:32.995Z,0.80
2023-02-06T11:15:45.902Z,1.20
2023-02-06T11:18:50.152Z,1.33
2023-02-06T11:22:08.833Z,0.35
2023-02-06T11:25:34.047Z,1.36
2023-02-06T11:28:40.418Z,1.04
2023-02-06T11:31:47.296Z,1.23
2023-02-06T11:35:02.883Z,1.15
2023-02-06T11:38:21.743Z,2.00
2023-02-06T11:41:24.567Z,2.01
2023-02-06T11:44:34.843Z,1.81
2023-02-06T11:47:38.255Z,1.66
2023-02-06T11:50:41.525Z,1.09
2023-02-06T11:54:03.270Z,2.01
2023-02-06T11:57:20.526Z,1.57
2023-02-06T12:00:23.547Z,1.69
2023-02-06T12:03:36.930Z,1.43
2023-02-06T12:06:41.015Z,1.53
2023-02-06T12:09:44.235Z,1.75
2023-02-06T12:13:02.425Z,1.89
2023-02-06T12:16:07.694Z,1.92
2023-02-06T12:19:31.857Z,1.37
2023-02-06T12:22:50.404Z,1.10
2023-02-06T12:26:00.769Z,1.27
2023-02-06T12:29:19.982Z,1.75
2023-02-06T12:32:31.436Z,1.69
2023-02-06T12:35:43.926Z,1.64
2023-02-06T12:38:57.483Z,1.59
2023-02-06T12:42:18.537Z,2.14
2023-02-06T12:45:35.790Z,2.05
2023-02-06T12:49:05.571Z,2.40
2023-02-06T12:52:28.363Z,1.82
2023-02-06T12:55:39.734Z,1.19
2023-02-06T12:58:42.302Z,1.35
2023-02-06T13:01:55.916Z,1.89
2023-02-06T13:05:03.956Z,2.20
2023-02-06T13:08:20.928Z,2.13
2023-02-06T13:11:40.712Z,1.10
2023-02-06T13:14:53.369Z,1.53
2023-02-06T13:17:56.966Z,1.83
2023-02-06T13:21:21.658Z,1.59
2023-02-06T13:24:24.442Z,1.39
2023-02-06T13:27:40.607Z,1.58
2023-02-06T13:30:43.253Z,1.91
2023-02-06T13:33:54.493Z,1.91
2023-02-06T13:37:25.992Z,1.45
2023-02-06T13:40:30.841Z,1.40
2023-02-06T13:43:33.530Z,1.57
2023-02-06T13:47:21.549Z,1.85
2023-02-06T13:50:45.717Z,1.61
2023-02-06T13:53:54.218Z,1.76
2023-02-06T13:57:23.556Z,1.42
2023-02-06T14:00:30.472Z,1.56
2023-02-06T14:03:38.973Z,1.34
2023-02-06T14:06:44.460Z,1.13
2023-02-06T14:10:27.831Z,1.56
2023-02-06T14:13:39.726Z,1.74
2023-02-06T14:17:20.946Z,1.30
2023-02-06T14:20:40.846Z,1.77
2023-02-06T14:23:59.189Z,1.12
2023-02-06T14:27:22.246Z,1.14
2023-02-06T14:30:54.259Z,1.13
2023-02-06T14:34:04.126Z,0.83
2023-02-06T14:37:40.904Z,0.86
2023-02-06T14:40:45.316Z,0.98
2023-02-06T14:43:51.159Z,1.12
2023-02-06T14:46:53.847Z,1.33
2023-02-06T14:49:59.318Z,1.39
2023-02-06T14:53:16.595Z,1.55
2023-02-06T14:56:26.916Z,1.33
2023-02-06T14:59:31.062Z,1.35
2023-02-06T15:02:36.512Z,1.39
2023-02-06T15:05:39.149Z,1.07
2023-02-06T15:08:50.064Z,1.32
2023-02-06T15:11:56.516Z,0.94
2023-02-06T15:15:05.296Z,1.13
2023-02-06T15:18:17.870Z,1.44
2023-02-06T15:21:21.298Z,1.22
2023-02-06T15:24:42.885Z,0.65
2023-02-06T15:27:46.144Z,0.62
2023-02-06T15:31:00.852Z,0.51
2023-02-06T15:34:04.008Z,0.20
2023-02-06T15:37:39.323Z,0.38
2023-02-06T15:40:45.887Z,0.35
2023-02-06T15:43:50.874Z,0.16
2023-02-06T15:46:55.834Z,0.07
2023-02-06T15:50:00.593Z,-0.12
2023-02-06T15:53:20.923Z,-0.37
2023-02-06T15:56:28.098Z,0.22
2023-02-06T15:59:35.798Z,0.17
2023-02-06T16:02:40.746Z,-0.21
2023-02-06T16:05:44.134Z,-0.29
2023-02-06T16:08:53.990Z,-0.49
2023-02-06T16:11:58.182Z,-0.47
2023-02-06T16:15:04.691Z,-0.59
2023-02-06T16:18:26.435Z,-0.06
2023-02-06T16:21:31.804Z,-0.27
2023-02-06T16:24:35.183Z,-0.41
2023-02-06T16:27:45.133Z,-0.14
2023-02-06T16:31:01.396Z,-0.03
2023-02-06T16:34:20.876Z,-0.28
2023-02-06T16:37:27.437Z,-0.36
2023-02-06T16:40:31.387Z,-0.40
2023-02-06T16:43:34.333Z,-0.13
2023-02-06T16:46:37.175Z,-0.50
2023-02-06T16:49:40.157Z,-0.72
2023-02-06T16:52:55.601Z,-0.71
2023-02-06T16:55:59.036Z,-0.55
2023-02-06T16:59:01.715Z,-0.94
2023-02-06T17:02:13.841Z,-0.56
2023-02-06T17:05:16.559Z,-0.72
2023-02-06T17:08:22.051Z,-0.93
2023-02-06T17:11:25.060Z,-1.03
2023-02-06T17:14:28.159Z,-0.91
2023-02-06T17:17:30.986Z,-1.07
2023-02-06T17:20:38.125Z,-0.92
2023-02-06T17:23:41.551Z,-1.20
2023-02-06T17:26:44.655Z,-0.98
2023-02-06T17:29:48.640Z,-1.05
2023-02-06T17:32:51.715Z,-1.00
2023-02-06T17:35:54.451Z,-0.93
2023-02-06T17:38:59.044Z,-1.01
2023-02-06T17:42:02.296Z,-0.95
2023-02-06T17:45:05.684Z,-1.04
2023-02-06T17:48:09.163Z,-1.02
2023-02-06T17:51:12.200Z,-1.38
2023-02-06T17:54:15.224Z,-1.42
2023-02-06T17:57:18.167Z,-1.42
2023-02-06T18:00:23.787Z,-1.55
2023-02-06T18:03:28.895Z,-1.78
2023-02-06T18:06:34.688Z,-2.00
2023-02-06T18:09:37.640Z,-1.97
2023-02-06T18:12:40.610Z,-2.26
2023-02-06T18:15:56.858Z,-2.09
2023-02-06T18:18:59.824Z,-2.20
2023-02-06T18:22:02.985Z,-2.30
2023-02-06T18:25:06.201Z,-2.09
2023-02-06T18:28:10.644Z,-1.67
2023-02-06T18:31:35.817Z,-1.64
2023-02-06T18:34:40.621Z,-1.72
2023-02-06T18:37:43.831Z,-1.77
2023-02-06T18:40:47.820Z,-1.88
2023-02-06T18:43:50.919Z,-2.26
2023-02-06T18:46:54.108Z,-2.53
2023-02-06T18:49:56.933Z,-2.51
2023-02-06T18:53:00.265Z,-2.58
2023-02-06T18:56:03.143Z,-2.72
2023-02-06T18:59:06.652Z,-2.94
2023-02-06T19:02:12.695Z,-2.94
2023-02-06T19:05:16.280Z,-2.90
2023-02-06T19:08:19.737Z,-3.00
2023-02-06T19:11:23.087Z,-2.69
2023-02-06T19:14:26.197Z,-2.69
2023-02-06T19:17:29.203Z,-2.51
2023-02-06T19:20:32.344Z,-2.57
2023-02-06T19:23:37.857Z,-2.67
2023-02-06T19:26:44.258Z,-2.69
2023-02-06T19:29:48.177Z,-2.54
2023-02-06T19:32:51.571Z,-2.66
2023-02-06T19:35:54.917Z,-2.51
2023-02-06T19:39:01.203Z,-2.68
2023-02-06T19:42:06.738Z,-2.57
2023-02-06T19:45:09.529Z,-2.53
2023-02-06T19:48:13.872Z,-2.51
2023-02-06T19:51:19.924Z,-2.65
2023-02-06T19:54:22.903Z,-2.75
2023-02-06T19:57:25.848Z,-2.71
2023-02-06T20:00:29.400Z,-2.83
2023-02-06T20:03:32.973Z,-2.61
2023-02-06T20:06:35.930Z,-2.77
2023-02-06T20:09:41.984Z,-2.88
2023-02-06T20:12:45.206Z,-2.94
2023-02-06T20:15:48.639Z,-2.85
2023-02-06T20:18:52.133Z,-2.85
2023-02-06T20:21:57.970Z,-2.70
2023-02-06T20:25:00.905Z,-2.78
2023-02-06T20:28:05.104Z,-2.75
2023-02-06T20:31:09.985Z,-2.94
2023-02-06T20:34:13.861Z,-3.19
2023-02-06T20:37:17.809Z,-3.16
2023-02-06T20:40:23.358Z,-3.31
2023-02-06T20:43:26.498Z,-3.50
2023-02-06T20:46:32.727Z,-3.32
2023-02-06T20:49:35.290Z,-3.44
2023-02-06T20:52:38.367Z,-3.49
2023-02-06T20:55:44.495Z,-3.38
2023-02-06T20:58:50.261Z,-3.27
2023-02-06T21:01:52.977Z,-3.69
2023-02-06T21:04:56.073Z,-3.45
2023-02-06T21:07:59.849Z,-3.21
2023-02-06T21:11:03.730Z,-3.29
2023-02-06T21:14:07.357Z,-3.33
2023-02-06T21:17:10.679Z,-3.34
2023-02-06T21:20:13.832Z,-3.18
2023-02-06T21:23:17.396Z,-3.64
2023-02-06T21:26:22.205Z,-3.44
2023-02-06T21:29:25.281Z,-3.43
2023-02-06T21:32:28.305Z,-3.34
2023-02-06T21:35:33.810Z,-3.49
2023-02-06T21:38:42.549Z,-2.98
2023-02-06T21:41:47.313Z,-2.83
2023-02-06T21:44:49.850Z,-2.95
2023-02-06T21:47:52.741Z,-2.85
2023-02-06T21:50:56.295Z,-2.82
2023-02-06T21:53:59.578Z,-2.78
2023-02-06T21:57:02.170Z,-3.42
2023-02-06T22:00:05.700Z,-3.69
2023-02-06T22:03:16.255Z,-3.47
2023-02-06T22:06:20.916Z,-2.94
2023-02-06T22:09:23.869Z,-3.15
2023-02-06T22:12:27.642Z,-3.31
2023-02-06T22:15:30.334Z,-3.44
2023-02-06T22:18:33.206Z,-3.05
2023-02-06T22:21:35.966Z,-3.20
2023-02-06T22:24:39.021Z,-3.33
2023-02-06T22:27:41.617Z,-3.29
2023-02-06T22:30:44.663Z,-3.22
2023-02-06T22:33:48.244Z,-3.52
2023-02-06T22:36:51.306Z,-3.41
2023-02-06T22:39:56.967Z,-3.38
2023-02-06T22:43:00.021Z,-3.47
2023-02-06T22:46:03.280Z,-3.45
2023-02-06T22:49:08.034Z,-3.43
2023-02-06T22:52:30.726Z,-3.31
2023-02-06T22:55:57.951Z,-3.58
2023-02-06T22:59:07.597Z,-3.37
2023-02-06T23:02:10.905Z,-3.60
2023-02-06T23:05:13.594Z,-3.76
2023-02-06T23:08:16.609Z,-3.73
2023-02-06T23:11:19.345Z,-3.89
2023-02-06T23:14:22.271Z,-3.95
2023-02-06T23:17:25.037Z,-3.91
2023-02-06T23:20:30.643Z,-3.87
2023-02-06T23:23:33.259Z,-3.88
2023-02-06T23:26:36.882Z,-3.89
2023-02-06T23:29:39.638Z,-3.93
2023-02-06T23:32:42.698Z,-4.11
2023-02-06T23:35:45.439Z,-3.95
2023-02-06T23:38:48.604Z,-4.14
2023-02-06T23:41:51.333Z,-4.31
2023-02-06T23:44:54.975Z,-4.30
2023-02-06T23:47:58.102Z,-4.16
2023-02-06T23:51:01.473Z,-4.02
2023-02-06T23:54:05.335Z,-3.73
2023-02-06T23:57:08.303Z,-3.83
